Череповец

СКИДКИ НА СМАРТФОНЫ!

Карта отелей и гостиниц, располагающихся рядом с аэропортом Череповец :

Череповец Вологодская область 59° 16' 33.78" N, 38° 1' 7.5" E
Код аэродрома ИКАО
ULWC
Код аэродрома RU
УЛВЦ
Координаты
N59.27605° E038.01875°
Превышение над уровнем моря
115
Основная полоса
03/21
Курс магнитный
029,4/209,4
Длина основной ВПП
2523
Ширина основной ВПП
42
Покрытие основной ВПП
Твёрдое
Освещение ВПП
Постоянное
Тип: 
Аэродром
Класс аэродрома: 
Международный
Принадлежность: 
ГА
Статус: 
Действующий
Сайт: 
severstal-avia.com
E-mail аэродрома: 
pdsp@severstal-avia.ru
Страна: 
Россия
Регион: 
Вологодская область
Дополнительная информация: 
Оператор: ООО "Авиапредприятие "Северсталь". Нкр=(600)м. Параллельная ГВПП-03/21 (1724x90м) не поддерживается.
Схемы аэропортов: 
Погода: 

Авиационная погода в Череповце

Регион: 
Погода METAR: 
ULWC 250400Z 09003MPS 9999 BKN024 08/08 Q1003 NOSIG RMK QFE743/0990
Время наблюдения
2022-09-25T04:00:00Z
Температура C
8.0
Точка росы
8.0
Направление ветра
90
Скорость ветра (узлы)
6
Метео видимость
6.21
Облачность
BKN
Нижняя граница облачности (футы)
2400
Явления погоды
Условия полета
MVFR
Аэропорт подробнее: 
BKN – значительная (рассеянная, разорванная) облачность;

Скидки на навигаторы!

Найти трансфер

С помощью этой формы Вы можете найти трансфер из аэропорта Череповец в город, аэропорт или вокзал:

Погода в аэропортах:

Авиационная погода в Курске

Погода METAR: 
UUOK 250400Z 31006MPS 9999 -RA OVC030 07/06 Q1005 R30/290050 NOSIG RMK QFE735/0980
Время наблюдения
2022-09-25T04:00:00Z
Температура C
7.0
Точка росы
6.0
Направление ветра
310
Скорость ветра (узлы)
12
Метео видимость
6.21
Облачность
OVC
Нижняя граница облачности (футы)
3000
Явления погоды
-RA
Условия полета
MVFR
Аэропорт подробнее: 
OVC – сплошная облачность;
-RA - слабый дождь;

Авиационная погода в Полярном

Регион: 
Погода METAR: 
UERP 250400Z 29003MPS 9999 -SHSN BKN023CB OVC100 M04/M05 Q1006 R17/491032 NOSIG RMK QFE710
Время наблюдения
2022-09-25T04:00:00Z
Температура C
-4.0
Точка росы
-5.0
Направление ветра
290
Скорость ветра (узлы)
6
Метео видимость
6.21
Облачность
BKN
OVC
Нижняя граница облачности (футы)
2300
10000
Явления погоды
-SHSN
Условия полета
MVFR
Аэропорт подробнее: 
BKN – значительная (рассеянная, разорванная) облачность; OVC – сплошная облачность;
-SHSN - слабый ливневой снег;

Авиационная погода в Якутске

Регион: 
Погода METAR: 
UEEE 250400Z 20002MPS 9999 -SHRA BKN024CB 07/05 Q1003 R05R/290150 NOSIG RMK QFE743
Время наблюдения
2022-09-25T04:00:00Z
Температура C
7.0
Точка росы
5.0
Направление ветра
200
Скорость ветра (узлы)
4
Метео видимость
6.21
Облачность
BKN
Нижняя граница облачности (футы)
2400
Явления погоды
-SHRA
Условия полета
MVFR
Аэропорт подробнее: 
BKN – значительная (рассеянная, разорванная) облачность;
-SHRA - слабый ливневой дождь;

Авиационная погода в Москва - Домодедово

Погода METAR: 
UUDD 250400Z 14005MPS 5000 -RA BR OVC003 06/05 Q0997 R14R/290042 NOSIG
Время наблюдения
2022-09-25T04:00:00Z
Температура C
6.0
Точка росы
5.0
Направление ветра
140
Скорость ветра (узлы)
10
Метео видимость
3.11
Облачность
OVC
Нижняя граница облачности (футы)
300
Явления погоды
-RA BR
Условия полета
LIFR
Аэропорт подробнее: 
OVC – сплошная облачность;
-RA - слабый дождь; BR – дымка (видимость от 1 до 9 км);